Time;durP1;ratioP1;P1;durP2;ratioP2;P2;SDS_P1;SDS_P2;PMS_P1;PMS_P2;Temp;Humidity;BMP_temperature;BMP_pressure;BME280_temperature;BME280_humidity;BME280_pressure;Samples;Min_cycle;Max_cycle;Signal;HPM_P1;HPM_P2
2021/06/21 00:01:00;;;;;;;9.57;3.00;;;13.40;99.90;;;;;;5094518;28;20506;-70
2021/06/21 00:03:30;;;;;;;14.10;3.50;;;13.60;99.90;;;;;;5097483;28;20647;-68
2021/06/21 00:05:57;;;;;;;10.67;3.53;;;13.60;99.90;;;;;;5108190;28;20182;-67
2021/06/21 00:08:25;;;;;;;13.83;2.97;;;13.60;99.90;;;;;;5090588;28;20222;-65
2021/06/21 00:10:52;;;;;;;15.37;3.07;;;13.80;99.90;;;;;;5083374;28;20175;-66
2021/06/21 00:13:19;;;;;;;10.97;2.57;;;14.00;99.90;;;;;;5093558;28;20174;-70
2021/06/21 00:15:47;;;;;;;10.67;2.77;;;14.00;99.90;;;;;;5093790;28;20641;-65
2021/06/21 00:18:18;;;;;;;10.33;3.10;;;14.00;99.90;;;;;;5100615;28;20225;-66
2021/06/21 00:20:49;;;;;;;6.27;2.23;;;14.10;99.90;;;;;;5100689;28;20178;-65
2021/06/21 00:23:17;;;;;;;6.70;2.07;;;14.30;99.90;;;;;;5099460;28;20261;-65
2021/06/21 00:25:44;;;;;;;7.13;1.80;;;14.50;99.90;;;;;;5093723;28;20177;-67
2021/06/21 00:28:12;;;;;;;4.57;1.80;;;14.50;99.90;;;;;;5100049;28;20183;-66
2021/06/21 00:30:39;;;;;;;8.80;2.20;;;14.40;99.90;;;;;;5093971;28;20235;-71
2021/06/21 00:33:07;;;;;;;10.97;2.10;;;14.40;99.90;;;;;;5087587;28;20179;-71
2021/06/21 00:35:34;;;;;;;13.93;2.33;;;14.40;99.90;;;;;;5089674;28;20189;-72
2021/06/21 00:38:02;;;;;;;7.83;2.17;;;14.50;99.90;;;;;;5091686;28;20218;-71
2021/06/21 00:40:29;;;;;;;14.13;2.30;;;14.60;99.90;;;;;;5091791;28;20171;-66
2021/06/21 00:42:57;;;;;;;6.77;2.10;;;14.70;99.90;;;;;;5094132;28;20198;-70
2021/06/21 00:45:24;;;;;;;7.33;1.60;;;14.70;99.90;;;;;;5093903;28;20183;-68
2021/06/21 00:47:54;;;;;;;9.77;1.90;;;14.70;99.90;;;;;;5093826;28;20178;-67
2021/06/21 00:50:23;;;;;;;10.43;2.10;;;14.70;99.90;;;;;;5087760;28;20663;-70
2021/06/21 00:52:54;;;;;;;8.50;1.60;;;14.60;99.90;;;;;;5097832;28;20533;-69
2021/06/21 00:55:22;;;;;;;9.87;2.03;;;15.00;99.90;;;;;;5086387;28;20649;-69
2021/06/21 00:57:50;;;;;;;9.60;1.67;;;15.40;99.90;;;;;;5090751;28;20237;-69
2021/06/21 01:00:21;;;;;;;7.87;1.30;;;15.50;99.90;;;;;;5086329;28;20178;-69
2021/06/21 01:02:48;;;;;;;8.93;1.57;;;15.50;99.90;;;;;;5090962;28;20186;-67
2021/06/21 01:05:19;;;;;;;6.40;1.30;;;15.60;99.90;;;;;;5084355;28;20252;-67
2021/06/21 01:07:47;;;;;;;3.77;1.30;;;15.80;99.90;;;;;;5091579;28;20177;-66
2021/06/21 01:10:17;;;;;;;8.53;0.90;;;16.00;99.90;;;;;;5073626;28;20174;-66
2021/06/21 01:12:50;;;;;;;6.10;1.17;;;16.00;99.90;;;;;;5088281;28;20234;-65
2021/06/21 01:15:27;;;;;;;3.20;1.23;;;15.80;99.90;;;;;;5091018;28;20233;-66
2021/06/21 01:18:02;;;;;;;6.77;1.20;;;15.80;99.90;;;;;;5089238;28;20238;-65
2021/06/21 01:21:06;;;;;;;6.73;1.40;;;16.00;99.90;;;;;;5085109;28;20583;-67
2021/06/21 01:24:03;;;;;;;10.87;1.57;;;16.30;99.90;;;;;;5087445;28;20185;-67
2021/06/21 01:26:54;;;;;;;7.57;1.57;;;16.60;99.90;;;;;;5081385;28;20187;-67
2021/06/21 01:29:58;;;;;;;5.90;1.40;;;16.80;99.90;;;;;;5086649;28;20188;-67
2021/06/21 01:32:40;;;;;;;8.60;1.40;;;17.10;99.90;;;;;;5089501;28;20206;-66
2021/06/21 01:35:31;;;;;;;2.67;1.00;;;16.80;99.90;;;;;;5091458;28;20645;-67
2021/06/21 01:38:02;;;;;;;7.73;1.40;;;16.80;99.90;;;;;;5089564;28;20214;-66
2021/06/21 01:40:36;;;;;;;3.77;1.50;;;16.90;99.90;;;;;;5090216;28;20507;-66
2021/06/21 01:43:05;;;;;;;12.03;1.40;;;16.80;99.90;;;;;;5089138;28;20272;-67
2021/06/21 01:45:34;;;;;;;7.10;1.37;;;17.20;99.90;;;;;;5090500;28;20207;-66
2021/06/21 01:48:04;;;;;;;8.90;1.53;;;17.30;99.90;;;;;;5088943;28;20684;-67
2021/06/21 01:50:32;;;;;;;5.93;1.20;;;17.00;99.90;;;;;;5069658;28;20246;-65
2021/06/21 01:53:13;;;;;;;5.83;1.33;;;16.50;99.90;;;;;;5084973;28;20196;-66
2021/06/21 01:55:57;;;;;;;3.20;0.87;;;16.30;99.90;;;;;;5087647;28;20187;-66
2021/06/21 01:58:26;;;;;;;5.00;0.93;;;15.90;99.90;;;;;;5085813;28;20199;-65
2021/06/21 02:00:54;;;;;;;2.47;1.10;;;15.70;99.90;;;;;;5091513;28;20171;-68
2021/06/21 02:03:23;;;;;;;6.37;1.63;;;15.50;99.90;;;;;;5085493;28;20186;-66
2021/06/21 02:05:52;;;;;;;4.93;1.50;;;15.40;99.90;;;;;;5088192;28;20731;-66
2021/06/21 02:08:21;;;;;;;7.47;1.80;;;15.20;99.90;;;;;;5072208;28;20599;-67
2021/06/21 02:10:52;;;;;;;6.00;1.13;;;15.00;99.90;;;;;;5090411;28;20191;-69
2021/06/21 02:13:22;;;;;;;8.77;1.73;;;15.00;99.90;;;;;;5090462;28;20179;-67
2021/06/21 02:15:55;;;;;;;10.07;1.83;;;15.00;99.90;;;;;;5090323;28;20182;-67
2021/06/21 02:18:24;;;;;;;6.07;1.40;;;15.00;99.90;;;;;;5089970;28;20217;-68
2021/06/21 02:20:53;;;;;;;4.93;1.37;;;14.90;99.90;;;;;;5094154;28;20181;-68
2021/06/21 02:23:25;;;;;;;6.40;1.60;;;14.90;99.90;;;;;;5091640;28;20187;-67
2021/06/21 02:25:54;;;;;;;4.90;1.20;;;14.90;99.90;;;;;;5095517;28;20181;-69
2021/06/21 02:28:23;;;;;;;2.97;1.27;;;14.80;99.90;;;;;;5095072;28;20184;-71
2021/06/21 02:30:52;;;;;;;4.83;1.20;;;15.00;99.90;;;;;;5095206;28;20186;-70
2021/06/21 02:33:20;;;;;;;6.07;1.27;;;15.10;99.90;;;;;;5095042;28;20232;-67
2021/06/21 02:35:48;;;;;;;3.90;1.20;;;15.30;99.90;;;;;;5094846;28;20182;-67
2021/06/21 02:38:19;;;;;;;5.97;1.57;;;15.30;99.90;;;;;;5094712;28;20712;-68
2021/06/21 02:40:49;;;;;;;6.03;2.70;;;15.40;99.90;;;;;;5095077;28;20201;-67
2021/06/21 02:43:16;;;;;;;4.47;1.20;;;15.40;99.90;;;;;;5092568;28;20202;-66
2021/06/21 02:45:44;;;;;;;5.00;1.77;;;15.50;99.90;;;;;;5094967;28;20197;-67
2021/06/21 02:48:12;;;;;;;6.83;1.60;;;15.70;99.90;;;;;;5094457;28;20210;-69
2021/06/21 02:50:43;;;;;;;8.37;1.73;;;15.60;99.90;;;;;;5093887;28;20240;-66
2021/06/21 02:53:26;;;;;;;11.90;1.60;;;15.80;99.90;;;;;;5094506;28;20179;-67
2021/06/21 02:56:21;;;;;;;5.97;1.93;;;16.00;99.90;;;;;;5091256;28;20642;-67
2021/06/21 02:58:49;;;;;;;6.37;0.90;;;16.20;99.90;;;;;;5091610;28;20205;-67
2021/06/21 03:01:18;;;;;;;5.10;1.27;;;16.20;99.90;;;;;;5092473;28;20210;-66
2021/06/21 03:03:52;;;;;;;8.43;1.50;;;16.30;99.90;;;;;;5090984;28;20598;-67
2021/06/21 03:06:20;;;;;;;5.90;1.23;;;16.40;99.90;;;;;;5094117;28;20477;-66
2021/06/21 03:08:54;;;;;;;9.10;1.60;;;16.50;99.90;;;;;;5088638;28;20197;-67
2021/06/21 03:11:25;;;;;;;11.17;1.93;;;16.50;99.90;;;;;;5090164;28;20187;-67
2021/06/21 03:13:55;;;;;;;7.90;1.77;;;16.50;99.90;;;;;;5090629;28;20206;-68
2021/06/21 03:16:26;;;;;;;11.87;2.27;;;16.40;99.90;;;;;;5089643;28;20804;-68
2021/06/21 03:18:55;;;;;;;7.87;1.80;;;16.20;99.90;;;;;;5091751;28;20541;-66
2021/06/21 03:21:23;;;;;;;12.33;1.80;;;16.00;99.90;;;;;;5084218;28;20677;-68
2021/06/21 03:23:55;;;;;;;11.30;1.73;;;15.80;99.90;;;;;;5089373;28;20658;-68
2021/06/21 03:26:31;;;;;;;6.73;1.80;;;15.60;99.90;;;;;;5074192;28;20193;-66
2021/06/21 03:28:58;;;;;;;19.23;2.53;;;15.50;99.90;;;;;;5092695;28;20238;-65
2021/06/21 03:31:26;;;;;;;11.23;1.60;;;15.40;99.90;;;;;;5073064;28;20183;-69
2021/06/21 03:33:54;;;;;;;9.63;1.97;;;15.40;99.90;;;;;;5090465;28;20191;-68
2021/06/21 03:36:21;;;;;;;7.97;2.33;;;15.40;99.90;;;;;;5093243;28;20181;-67
2021/06/21 03:38:51;;;;;;;7.40;1.70;;;15.60;99.90;;;;;;5093277;28;20187;-66
2021/06/21 03:41:19;;;;;;;8.33;2.10;;;15.70;99.90;;;;;;5090356;28;20707;-66
2021/06/21 03:43:48;;;;;;;12.37;1.73;;;15.80;99.90;;;;;;5093166;28;20204;-70
2021/06/21 03:46:15;;;;;;;8.97;1.50;;;15.90;99.90;;;;;;5092858;28;20203;-66
2021/06/21 03:48:43;;;;;;;10.80;2.00;;;15.80;99.90;;;;;;5093112;28;20181;-67
2021/06/21 03:51:10;;;;;;;20.90;2.27;;;15.80;99.90;;;;;;5092598;28;20264;-67
2021/06/21 03:53:37;;;;;;;12.23;1.70;;;15.90;99.90;;;;;;5093073;28;20206;-67
2021/06/21 03:56:05;;;;;;;10.57;1.57;;;15.90;99.90;;;;;;5091030;28;20254;-65
2021/06/21 03:58:32;;;;;;;9.13;1.70;;;15.80;99.90;;;;;;5087034;28;20575;-69
2021/06/21 04:01:04;;;;;;;6.97;1.50;;;15.60;99.90;;;;;;5086546;28;20187;-67
2021/06/21 04:03:31;;;;;;;12.23;1.97;;;15.60;99.90;;;;;;5090073;28;20470;-66
2021/06/21 04:05:59;;;;;;;9.43;1.83;;;15.70;99.90;;;;;;5081646;28;20190;-66
2021/06/21 04:08:26;;;;;;;4.40;1.33;;;15.80;99.90;;;;;;5089852;28;20186;-66
2021/06/21 04:10:53;;;;;;;8.67;1.80;;;15.90;99.90;;;;;;5087321;28;20647;-69
2021/06/21 04:13:22;;;;;;;11.67;1.50;;;16.00;99.90;;;;;;5087339;28;20210;-67
2021/06/21 04:15:50;;;;;;;5.63;1.50;;;16.00;99.90;;;;;;5087886;28;20211;-69
2021/06/21 04:18:18;;;;;;;8.73;1.73;;;15.90;99.90;;;;;;5088616;28;20224;-66
2021/06/21 04:20:47;;;;;;;8.07;1.53;;;15.90;99.90;;;;;;5093012;28;20173;-66
2021/06/21 04:23:15;;;;;;;6.87;1.37;;;15.80;99.90;;;;;;5089466;28;20201;-66
2021/06/21 04:25:43;;;;;;;9.73;1.20;;;15.70;99.90;;;;;;5090310;28;20187;-66
2021/06/21 04:28:11;;;;;;;7.90;1.63;;;15.80;99.90;;;;;;5089567;28;20205;-66
2021/06/21 04:30:38;;;;;;;7.63;1.57;;;15.80;99.90;;;;;;5089918;28;20183;-66
2021/06/21 04:33:06;;;;;;;10.83;2.20;;;16.40;99.90;;;;;;5089407;28;20200;-69
2021/06/21 04:35:39;;;;;;;7.97;1.57;;;17.20;99.90;;;;;;5089174;28;20648;-67
2021/06/21 04:38:06;;;;;;;12.90;1.70;;;18.00;99.90;;;;;;5090252;28;20222;-69
2021/06/21 04:40:36;;;;;;;8.67;1.83;;;18.70;99.90;;;;;;5088287;28;20193;-67
2021/06/21 04:43:04;;;;;;;9.17;1.20;;;18.60;99.90;;;;;;5087734;28;20244;-68
2021/06/21 04:45:31;;;;;;;8.00;3.17;;;17.90;99.90;;;;;;5090644;28;20243;-67
2021/06/21 04:47:59;;;;;;;9.43;2.57;;;17.20;99.90;;;;;;5086130;28;20335;-68
2021/06/21 04:50:26;;;;;;;7.43;2.47;;;16.80;99.90;;;;;;5087668;28;20190;-66
2021/06/21 04:52:53;;;;;;;5.93;1.70;;;16.70;99.90;;;;;;5089302;28;20239;-67
2021/06/21 04:55:23;;;;;;;5.60;1.40;;;17.20;99.90;;;;;;5087015;28;20223;-68
2021/06/21 04:57:51;;;;;;;9.37;1.80;;;17.60;99.90;;;;;;5087507;28;20237;-70
2021/06/21 05:00:21;;;;;;;6.27;1.33;;;18.00;99.90;;;;;;5091122;28;20182;-70
2021/06/21 05:02:50;;;;;;;7.27;1.33;;;18.20;99.90;;;;;;5090503;28;20194;-70
2021/06/21 05:05:18;;;;;;;6.23;1.80;;;18.40;99.90;;;;;;5073104;28;20599;-69
2021/06/21 05:07:51;;;;;;;9.53;1.73;;;18.10;99.90;;;;;;5091083;28;20261;-68
2021/06/21 05:10:20;;;;;;;7.13;1.43;;;18.30;99.90;;;;;;5073127;28;20186;-69
2021/06/21 05:12:48;;;;;;;6.80;1.67;;;18.50;99.90;;;;;;5090756;28;20684;-67
2021/06/21 05:15:16;;;;;;;11.03;2.03;;;18.50;99.90;;;;;;5091526;28;20177;-70
2021/06/21 05:17:45;;;;;;;12.33;1.63;;;18.20;99.90;;;;;;5090856;28;20270;-68
2021/06/21 05:20:12;;;;;;;5.67;1.60;;;18.50;99.90;;;;;;5071032;28;20561;-70
2021/06/21 05:22:40;;;;;;;4.43;1.27;;;19.00;99.90;;;;;;5089497;28;20182;-69
2021/06/21 05:25:08;;;;;;;8.73;1.70;;;19.10;99.90;;;;;;5073570;28;20218;-68
2021/06/21 05:27:36;;;;;;;4.63;1.33;;;19.20;99.90;;;;;;5091444;28;20305;-69
2021/06/21 05:30:06;;;;;;;10.20;1.77;;;19.50;99.90;;;;;;5091784;28;20204;-68
2021/06/21 05:32:36;;;;;;;10.23;1.80;;;19.00;99.90;;;;;;5072942;28;20183;-68
2021/06/21 05:35:05;;;;;;;6.27;1.83;;;19.00;99.90;;;;;;5062531;28;20182;-71
2021/06/21 05:37:33;;;;;;;5.23;1.20;;;19.00;99.90;;;;;;5084695;28;20236;-70
2021/06/21 05:40:00;;;;;;;6.23;1.23;;;18.70;99.90;;;;;;5089169;28;20171;-69
2021/06/21 05:42:29;;;;;;;5.10;1.23;;;18.30;99.90;;;;;;5080598;28;20177;-67
2021/06/21 05:44:56;;;;;;;8.40;1.30;;;17.80;99.90;;;;;;5069044;28;20195;-70
2021/06/21 05:47:24;;;;;;;4.60;1.40;;;17.40;99.90;;;;;;5090169;28;20639;-70
2021/06/21 05:49:52;;;;;;;5.90;1.33;;;17.10;99.90;;;;;;5090125;28;20189;-68
2021/06/21 05:52:19;;;;;;;5.70;1.80;;;16.80;99.90;;;;;;5090840;28;20179;-69
2021/06/21 05:54:46;;;;;;;8.47;1.63;;;16.60;99.90;;;;;;5090609;28;20664;-67
2021/06/21 05:57:13;;;;;;;9.17;1.43;;;16.50;99.90;;;;;;5089907;28;20245;-70
2021/06/21 05:59:41;;;;;;;6.83;1.50;;;16.50;99.90;;;;;;5091083;28;20196;-67
2021/06/21 06:02:08;;;;;;;6.37;1.20;;;16.50;99.90;;;;;;5088667;28;20193;-69
2021/06/21 06:04:36;;;;;;;5.37;1.40;;;16.40;99.90;;;;;;5090345;28;20183;-70
2021/06/21 06:07:03;;;;;;;3.13;1.00;;;16.30;99.90;;;;;;5091147;28;20279;-66
2021/06/21 06:09:31;;;;;;;9.43;1.63;;;16.10;99.90;;;;;;5090494;28;20312;-68
2021/06/21 06:11:58;;;;;;;10.80;1.57;;;16.00;99.90;;;;;;5083009;28;20208;-66
2021/06/21 06:14:25;;;;;;;7.33;1.80;;;15.90;99.90;;;;;;5089372;28;20174;-67
2021/06/21 06:16:54;;;;;;;9.43;2.70;;;15.70;99.90;;;;;;5090478;28;20717;-70
2021/06/21 06:19:22;;;;;;;10.33;2.10;;;15.60;99.90;;;;;;5090964;28;20197;-68
2021/06/21 06:21:50;;;;;;;8.10;2.00;;;15.30;99.90;;;;;;5090636;28;20216;-69
2021/06/21 06:24:18;;;;;;;7.27;1.97;;;15.20;99.90;;;;;;5090382;28;20266;-69
2021/06/21 06:26:46;;;;;;;8.63;2.10;;;15.00;99.90;;;;;;5088338;28;20234;-70
2021/06/21 06:29:14;;;;;;;6.63;1.70;;;14.90;99.90;;;;;;5091171;28;20240;-68
2021/06/21 06:31:44;;;;;;;7.67;1.77;;;14.80;99.90;;;;;;5088369;28;20544;-67
2021/06/21 06:34:13;;;;;;;9.77;2.20;;;14.80;99.90;;;;;;5088654;28;20398;-68
2021/06/21 06:36:40;;;;;;;12.27;2.27;;;14.60;99.90;;;;;;5088475;28;20252;-68
2021/06/21 06:39:09;;;;;;;7.63;1.70;;;14.60;99.90;;;;;;5090116;28;20198;-68
2021/06/21 06:41:36;;;;;;;11.30;2.20;;;14.50;99.90;;;;;;5090242;28;20179;-69
2021/06/21 06:44:04;;;;;;;9.73;2.53;;;14.40;99.90;;;;;;5088884;28;20194;-68
2021/06/21 06:46:32;;;;;;;7.00;2.60;;;14.30;99.90;;;;;;5089858;28;20278;-69
2021/06/21 06:49:00;;;;;;;7.80;2.07;;;14.30;99.90;;;;;;5089993;28;20258;-68
2021/06/21 06:51:30;;;;;;;5.83;2.30;;;14.20;99.90;;;;;;5089192;28;20663;-68
2021/06/21 06:54:19;;;;;;;5.93;1.90;;;14.20;99.90;;;;;;5086189;28;20183;-69
2021/06/21 06:57:04;;;;;;;8.67;2.07;;;14.10;99.90;;;;;;5071769;28;20299;-69
2021/06/21 06:59:36;;;;;;;11.67;2.20;;;14.00;99.90;;;;;;5090432;28;20261;-69
2021/06/21 07:02:08;;;;;;;8.13;1.73;;;14.00;99.90;;;;;;5088643;28;20185;-69
2021/06/21 07:04:37;;;;;;;6.23;1.60;;;13.90;99.90;;;;;;5090626;28;20187;-69
2021/06/21 07:07:05;;;;;;;6.23;1.93;;;13.90;99.90;;;;;;5093648;28;20205;-69
2021/06/21 07:09:34;;;;;;;4.17;1.50;;;13.90;99.90;;;;;;5091331;28;20182;-69
2021/06/21 07:12:02;;;;;;;5.43;1.50;;;13.90;99.90;;;;;;5091529;28;20185;-73
2021/06/21 07:14:30;;;;;;;2.13;1.13;;;13.90;99.90;;;;;;5054246;28;20180;-69
2021/06/21 07:16:57;;;;;;;8.23;1.60;;;13.80;99.90;;;;;;5085891;28;20238;-69
2021/06/21 07:19:25;;;;;;;4.80;1.60;;;13.90;99.90;;;;;;5094845;28;20537;-71
2021/06/21 07:21:53;;;;;;;4.97;1.40;;;13.90;99.90;;;;;;5081979;28;20195;-71
2021/06/21 07:24:21;;;;;;;6.30;1.60;;;14.00;99.90;;;;;;5091112;28;20700;-69
2021/06/21 07:26:50;;;;;;;8.67;1.90;;;13.90;99.90;;;;;;5092252;28;20187;-72
2021/06/21 07:29:18;;;;;;;5.70;1.90;;;14.00;99.90;;;;;;5094038;28;20171;-70
2021/06/21 07:31:46;;;;;;;6.93;2.10;;;14.00;99.90;;;;;;5093842;28;20170;-69
2021/06/21 07:34:13;;;;;;;7.53;2.10;;;14.10;99.90;;;;;;5093014;28;20189;-67
2021/06/21 07:36:41;;;;;;;7.93;2.10;;;14.10;99.90;;;;;;5093911;28;20206;-69
2021/06/21 07:39:09;;;;;;;7.17;2.03;;;14.10;99.90;;;;;;5094855;28;20200;-68
2021/06/21 07:41:37;;;;;;;9.50;2.30;;;14.10;99.90;;;;;;5085808;28;20297;-70
2021/06/21 07:44:04;;;;;;;7.60;2.23;;;14.10;99.90;;;;;;5091009;28;20328;-69
2021/06/21 07:46:32;;;;;;;6.80;2.60;;;14.10;99.90;;;;;;5093914;28;20179;-67
2021/06/21 07:49:00;;;;;;;5.60;2.33;;;14.00;99.90;;;;;;5094660;28;20269;-70
2021/06/21 07:51:30;;;;;;;7.97;2.50;;;14.10;99.90;;;;;;5094488;28;20280;-67
2021/06/21 07:53:58;;;;;;;10.40;2.73;;;14.00;99.90;;;;;;5093897;28;20193;-71
2021/06/21 07:56:26;;;;;;;4.90;1.80;;;14.00;99.90;;;;;;5093007;28;20253;-67
2021/06/21 07:58:53;;;;;;;5.57;2.20;;;14.00;99.90;;;;;;5088154;28;20183;-69
2021/06/21 08:01:21;;;;;;;7.03;2.20;;;14.00;99.90;;;;;;5093316;28;20189;-68
2021/06/21 08:03:48;;;;;;;10.13;3.00;;;14.00;99.90;;;;;;5093718;28;20205;-68
2021/06/21 08:06:16;;;;;;;9.60;2.83;;;14.00;99.90;;;;;;5093823;28;20691;-68
2021/06/21 08:08:44;;;;;;;8.17;2.53;;;14.00;99.90;;;;;;5096820;28;20182;-67
2021/06/21 08:11:14;;;;;;;13.43;2.77;;;14.00;99.90;;;;;;5114645;28;20174;-71
2021/06/21 08:13:41;;;;;;;13.30;3.07;;;13.90;99.90;;;;;;5094998;28;20288;-72
2021/06/21 08:16:09;;;;;;;9.57;2.73;;;13.90;99.90;;;;;;5094233;28;20613;-68
2021/06/21 08:18:37;;;;;;;8.27;2.70;;;13.90;99.90;;;;;;5093992;28;20202;-74
2021/06/21 08:21:04;;;;;;;10.40;3.40;;;13.80;99.90;;;;;;5076104;28;20187;-68
2021/06/21 08:23:34;;;;;;;10.43;3.33;;;13.80;99.90;;;;;;5094192;28;20182;-68
2021/06/21 08:26:03;;;;;;;9.27;3.17;;;13.70;99.90;;;;;;5095775;28;20220;-68
2021/06/21 08:28:30;;;;;;;8.17;3.77;;;13.70;99.90;;;;;;5092335;28;20218;-68
2021/06/21 08:30:58;;;;;;;10.00;3.60;;;13.60;99.90;;;;;;5093797;28;20190;-71
2021/06/21 08:33:27;;;;;;;8.60;3.83;;;13.50;99.90;;;;;;5094151;28;20238;-70
2021/06/21 08:35:54;;;;;;;10.53;3.70;;;13.50;99.90;;;;;;5094006;28;20210;-67
2021/06/21 08:38:22;;;;;;;12.23;3.37;;;13.50;99.90;;;;;;5105485;28;20236;-68
2021/06/21 08:40:50;;;;;;;9.53;3.90;;;13.40;99.90;;;;;;5105837;28;20206;-69
2021/06/21 08:43:18;;;;;;;7.83;3.93;;;13.30;99.90;;;;;;5101420;28;20186;-69
2021/06/21 08:45:45;;;;;;;10.03;3.33;;;13.30;99.90;;;;;;5094006;28;20301;-69
2021/06/21 08:48:13;;;;;;;9.50;4.50;;;13.30;99.90;;;;;;5093868;28;20204;-67
2021/06/21 08:50:41;;;;;;;8.83;4.50;;;13.20;99.90;;;;;;5093177;28;20582;-70
2021/06/21 08:53:11;;;;;;;11.47;4.10;;;13.20;99.90;;;;;;5093650;28;20626;-67
2021/06/21 08:55:38;;;;;;;13.17;3.80;;;13.10;99.90;;;;;;5093221;28;20403;-68
2021/06/21 08:58:06;;;;;;;9.40;4.17;;;13.10;99.90;;;;;;5093154;28;20238;-68
2021/06/21 09:00:33;;;;;;;11.90;3.77;;;13.10;99.90;;;;;;5075187;28;20182;-68
2021/06/21 09:03:05;;;;;;;9.40;3.77;;;13.00;99.90;;;;;;5092408;28;20278;-70
2021/06/21 09:05:34;;;;;;;9.53;3.70;;;12.90;99.90;;;;;;5089112;28;20804;-69
2021/06/21 09:08:06;;;;;;;13.93;4.83;;;12.90;99.90;;;;;;5089222;28;20193;-71
2021/06/21 09:10:38;;;;;;;12.63;5.07;;;12.90;99.90;;;;;;5093078;28;20178;-68
2021/06/21 09:13:17;;;;;;;12.83;5.53;;;12.80;99.90;;;;;;5089988;28;20178;-70
2021/06/21 09:15:56;;;;;;;16.00;5.47;;;12.80;99.90;;;;;;5092856;28;20210;-67
2021/06/21 09:18:39;;;;;;;15.40;5.40;;;12.80;99.90;;;;;;5079413;28;20215;-75
2021/06/21 09:21:20;;;;;;;15.10;5.57;;;12.70;99.90;;;;;;5077990;28;20418;-69
2021/06/21 09:23:54;;;;;;;17.43;4.40;;;12.70;99.90;;;;;;5092704;28;20518;-68
2021/06/21 09:26:27;;;;;;;11.37;3.90;;;12.70;99.90;;;;;;5092783;28;20590;-74
2021/06/21 09:28:58;;;;;;;18.27;3.90;;;12.70;99.90;;;;;;5092839;28;20175;-73
2021/06/21 09:31:26;;;;;;;16.77;5.10;;;12.70;99.90;;;;;;5074205;28;20175;-71
2021/06/21 09:34:12;;;;;;;11.80;3.97;;;12.60;99.90;;;;;;5091061;28;20199;-75
2021/06/21 09:36:39;;;;;;;9.17;4.17;;;12.60;99.90;;;;;;5080421;28;20709;-75
2021/06/21 09:39:41;;;;;;;15.30;6.80;;;12.60;99.90;;;;;;5088712;28;20198;-68
2021/06/21 09:42:24;;;;;;;10.23;4.73;;;12.50;99.90;;;;;;5079237;28;20196;-72
2021/06/21 09:45:00;;;;;;;8.33;3.93;;;12.50;99.90;;;;;;5087322;28;20587;-69
2021/06/21 09:47:38;;;;;;;10.63;3.90;;;12.50;99.90;;;;;;5085598;28;20652;-68
2021/06/21 09:50:20;;;;;;;10.33;3.67;;;12.40;99.90;;;;;;5091590;28;20200;-69
2021/06/21 09:52:56;;;;;;;10.87;4.43;;;12.40;99.90;;;;;;5091704;28;20182;-69
2021/06/21 09:55:27;;;;;;;14.70;4.37;;;12.40;99.90;;;;;;5092039;28;20182;-74
2021/06/21 09:58:20;;;;;;;10.23;3.80;;;12.30;99.90;;;;;;5076575;28;20235;-74
2021/06/21 10:01:09;;;;;;;14.93;4.30;;;12.30;99.90;;;;;;5084699;28;20196;-75
2021/06/21 10:03:44;;;;;;;13.37;4.77;;;12.30;99.90;;;;;;5075610;28;20657;-74
2021/06/21 10:06:14;;;;;;;12.03;4.33;;;12.30;99.90;;;;;;5092048;28;20182;-74
2021/06/21 10:08:46;;;;;;;16.20;4.30;;;12.30;99.90;;;;;;5092191;28;20178;-72
2021/06/21 10:11:41;;;;;;;12.33;4.47;;;12.30;99.90;;;;;;5092056;28;20174;-72
2021/06/21 10:14:11;;;;;;;17.33;4.60;;;12.20;99.90;;;;;;5091005;28;20191;-74
2021/06/21 10:16:39;;;;;;;11.90;4.27;;;12.20;99.90;;;;;;5092349;28;20198;-69
2021/06/21 10:19:08;;;;;;;9.00;3.97;;;12.20;99.90;;;;;;5092094;28;20178;-71
2021/06/21 10:21:38;;;;;;;14.97;4.87;;;12.20;99.90;;;;;;5091821;28;20651;-69
2021/06/21 10:24:06;;;;;;;8.67;4.43;;;12.20;99.90;;;;;;5091859;28;20175;-68
2021/06/21 10:26:34;;;;;;;9.93;4.90;;;12.10;99.90;;;;;;5091912;28;20175;-69
2021/06/21 10:29:01;;;;;;;13.97;4.57;;;12.10;99.90;;;;;;5092054;28;20171;-72
2021/06/21 10:31:30;;;;;;;8.47;4.70;;;12.10;99.90;;;;;;5091978;28;20178;-68
2021/06/21 10:34:03;;;;;;;16.87;4.50;;;12.10;99.90;;;;;;5091512;28;20197;-74
2021/06/21 10:36:43;;;;;;;15.80;4.00;;;12.10;99.90;;;;;;5091253;28;20183;-69
2021/06/21 10:39:19;;;;;;;9.80;3.53;;;12.10;99.90;;;;;;5093145;28;20177;-68
2021/06/21 10:42:05;;;;;;;10.83;4.00;;;12.10;99.90;;;;;;5077011;28;20517;-71
2021/06/21 10:44:41;;;;;;;9.57;3.53;;;12.10;99.90;;;;;;5110234;28;20186;-69
2021/06/21 10:47:39;;;;;;;13.13;4.70;;;12.00;99.90;;;;;;5095823;28;20205;-74
2021/06/21 10:50:31;;;;;;;12.50;4.57;;;11.90;99.90;;;;;;5095734;28;20239;-67
2021/06/21 10:53:00;;;;;;;9.90;4.40;;;11.80;99.90;;;;;;5095803;28;20296;-70
2021/06/21 10:55:36;;;;;;;15.17;6.83;;;11.80;99.90;;;;;;5095919;28;20186;-70
2021/06/21 10:58:20;;;;;;;11.33;4.70;;;11.80;99.90;;;;;;5095501;28;20225;-71
2021/06/21 11:00:54;;;;;;;11.50;4.43;;;11.70;99.90;;;;;;5096084;28;20320;-70
2021/06/21 11:03:32;;;;;;;13.63;4.17;;;11.60;99.90;;;;;;5095660;28;20655;-68
2021/06/21 11:06:06;;;;;;;10.43;4.07;;;11.60;99.90;;;;;;5095364;28;20183;-69
2021/06/21 11:08:46;;;;;;;8.70;4.10;;;11.60;99.90;;;;;;5095693;28;20230;-70
2021/06/21 11:11:48;;;;;;;7.43;3.73;;;11.60;99.90;;;;;;5084541;28;20182;-70
2021/06/21 11:14:17;;;;;;;12.33;3.87;;;11.60;99.90;;;;;;5025509;28;20238;-71
2021/06/21 11:16:47;;;;;;;7.87;3.70;;;11.60;99.90;;;;;;5074938;28;20290;-68
2021/06/21 11:19:21;;;;;;;10.43;3.73;;;11.60;99.90;;;;;;5083744;28;20645;-69
2021/06/21 11:21:56;;;;;;;7.70;3.73;;;11.70;99.90;;;;;;5094668;28;20612;-69
2021/06/21 11:24:50;;;;;;;14.07;4.17;;;11.70;99.90;;;;;;5094237;28;20651;-69
2021/06/21 11:27:21;;;;;;;8.80;4.30;;;11.60;99.90;;;;;;5091817;28;20281;-68
2021/06/21 11:29:51;;;;;;;9.23;3.90;;;11.70;99.90;;;;;;5095465;28;20175;-72
2021/06/21 11:32:19;;;;;;;13.23;4.60;;;11.70;99.90;;;;;;5092019;28;20274;-72
2021/06/21 11:35:01;;;;;;;11.30;4.97;;;11.60;99.90;;;;;;5085839;28;20183;-69
2021/06/21 11:37:34;;;;;;;8.20;4.33;;;11.60;99.90;;;;;;5092263;28;20229;-71
2021/06/21 11:40:18;;;;;;;9.30;3.63;;;11.60;99.90;;;;;;5093400;28;20186;-68
2021/06/21 11:42:58;;;;;;;9.40;4.13;;;11.50;99.90;;;;;;5081486;28;20207;-72
2021/06/21 11:45:51;;;;;;;8.57;4.13;;;11.50;99.90;;;;;;5085172;28;20190;-73
2021/06/21 11:48:41;;;;;;;8.53;3.63;;;11.50;99.90;;;;;;5091454;28;20175;-72
2021/06/21 11:51:16;;;;;;;9.80;4.33;;;11.40;99.90;;;;;;5094455;28;20175;-73
2021/06/21 11:53:48;;;;;;;5.40;3.63;;;11.40;99.90;;;;;;5094820;28;20230;-73
2021/06/21 11:56:26;;;;;;;8.87;4.20;;;11.30;99.90;;;;;;5093697;28;20606;-72
2021/06/21 11:58:55;;;;;;;11.30;4.43;;;11.40;99.90;;;;;;5088929;28;20179;-73
2021/06/21 12:01:25;;;;;;;16.57;4.67;;;11.30;99.90;;;;;;5094775;28;20177;-69
2021/06/21 12:03:57;;;;;;;9.80;4.40;;;11.30;99.90;;;;;;5092747;28;20734;-72
2021/06/21 12:06:25;;;;;;;14.00;4.83;;;11.30;99.90;;;;;;5079574;28;20171;-68
2021/06/21 12:08:52;;;;;;;12.43;4.37;;;11.30;99.90;;;;;;5094077;28;20541;-68
2021/06/21 12:11:28;;;;;;;8.50;4.30;;;11.30;99.90;;;;;;5093026;28;20234;-69
2021/06/21 12:14:06;;;;;;;9.97;4.70;;;11.30;99.90;;;;;;5093781;28;20185;-67
2021/06/21 12:16:42;;;;;;;9.63;4.63;;;11.20;99.90;;;;;;5094040;28;20185;-68
2021/06/21 12:19:10;;;;;;;13.10;4.97;;;11.30;99.90;;;;;;5093584;28;20585;-73
2021/06/21 12:21:45;;;;;;;9.33;5.23;;;11.30;99.90;;;;;;5093876;28;20172;-71
2021/06/21 12:24:23;;;;;;;14.03;5.00;;;11.20;99.90;;;;;;5086842;28;20192;-68
2021/06/21 12:26:56;;;;;;;8.97;4.90;;;11.20;99.90;;;;;;5090380;28;20664;-72
2021/06/21 12:29:26;;;;;;;13.00;4.93;;;11.20;99.90;;;;;;5092802;28;20182;-72
2021/06/21 12:31:58;;;;;;;9.60;5.33;;;11.10;99.90;;;;;;5074656;28;20230;-69
2021/06/21 12:34:41;;;;;;;11.17;5.30;;;11.00;99.90;;;;;;5093082;28;20184;-73
2021/06/21 12:37:15;;;;;;;10.07;4.43;;;11.00;99.90;;;;;;5085909;28;20245;-67
2021/06/21 12:39:44;;;;;;;8.37;4.60;;;10.90;99.90;;;;;;5089709;28;20558;-68
2021/06/21 12:42:17;;;;;;;9.63;4.80;;;10.90;99.90;;;;;;5093020;28;20243;-68
2021/06/21 12:44:46;;;;;;;8.07;4.53;;;10.80;99.90;;;;;;5092879;28;20177;-67
2021/06/21 12:47:25;;;;;;;8.27;4.67;;;10.80;99.90;;;;;;5093526;28;20188;-69
2021/06/21 12:50:03;;;;;;;9.03;4.70;;;10.80;99.90;;;;;;5107990;28;20201;-69
2021/06/21 12:52:30;;;;;;;16.10;5.10;;;10.80;99.90;;;;;;5080479;28;20678;-68
2021/06/21 12:55:07;;;;;;;9.97;4.37;;;10.80;99.90;;;;;;5093187;28;20650;-68
2021/06/21 12:57:51;;;;;;;8.13;4.37;;;10.80;99.90;;;;;;5079765;28;20686;-67
2021/06/21 13:00:37;;;;;;;8.37;4.23;;;10.90;99.90;;;;;;5093002;28;20231;-68
2021/06/21 13:03:15;;;;;;;10.53;4.40;;;10.90;99.90;;;;;;5092892;28;20182;-67
2021/06/21 13:05:57;;;;;;;6.90;4.27;;;10.90;99.90;;;;;;5090321;28;20288;-68